Aérodrome :
LOGIN :

S'inscrire | Disclaimer

   EN    FR    IT 

 










Légende :    VFR   VFR Marginal   IFR   IFR Intensif   IFR Très Intensif
Visi : 
Plafond : 
>= 8 km
>= 3000ft
5 à 8 km
1000 à 3000 ft
1500m à 5 km
500 à 1000 ft
800 à 1500m
200 à 500 ft
< 800m
< 200 ft
Symboles :   Orages  Brouillard  Fortes neiges  Fortes précipitations  Vent > 20 kt
SIGMETs :   Divers  Orages  Givrage  Turbulence  Onde Orograph.  Cendres Volcan.






- Altitude de l'aérodrome : 1682 ft
- Code IATA : VIT


LEVT - Vitoria Gasteiz

DERNIER METAR :
  • 020730Z 00000KT 9999 3500E FEW006 SCT031 BKN065 07/07 Q1013

METARs EXPIRÉS :
  • 020700Z 00000KT 9999 0800E R04/0650U R22/P2000 PRFG FEW014 SCT065 06/06 Q1013
  • 020630Z 00000KT 9999 0900E R04/0450D R22/P2000 BCFG FEW014 SCT035 05/05 Q1013
  • 020614Z 01001KT 1500 0900 R04/0500D R22/P2000 MIFG BCFG FEW033 SCT065 05/05 Q1013
  • 020600Z 01002KT 4000 0900 MIFG BCFG FEW001 SCT062 06/06 Q1013
  • 020537Z VRB01KT 5000 0900 R04/1300U R22/1000U MIFG BCFG FEW030 BKN062 07/07 Q1013
  • 020530Z 07001KT 6000 FEW003 SCT033 BKN064 07/07 Q1013
  • 020500Z 00000KT 8000 FEW003 SCT023 BKN062 07/07 Q1013
  • 020430Z VRB01KT 8000 FEW003 SCT024 BKN055 07/07 Q1012

TAF AMD TAF LEVT
Valide du 02 à 06h jusqu'au 03 à 06h UTC


020544Z 0206/0306 09008KT 8000 SCT015 BKN025 TX14/0215Z TN00/0306Z
TEMPO 0206/0208 3000 BR BKN010
TEMPO 0206/0208 0800 BCFG BKN001
PROB40
TEMPO 0212/0219 03015G25KT
PROB40
TEMPO 0300/0306 0800 BCFG BKN001



MET'MAP, la Météo Aéronautique d'un coup d'oeil ! - Copyright ORBIFLY Décembre 2007 - Disclaimer

ORBIFLY MET'MAP TEAM :

Programmation & Développement : Alexandra Zaïnal
Sur une idée originale de : Baudouin d'Aumeries
Assistance à la programmation : Marc-Olivier Méhu
Soutien technique & logistique : Manuel Goepfert

Contact : metmap@orbifly.com




SOURCES & CREDITS :

   NOAA